Terminal Aerodrome Forecast
Issued by NWS Sioux Falls, SD

Home | Current Version | Previous Version | Graphics & Text | Print | Product List | Glossary On
Versions: 1 2 3 4 5 6 7 8 9 10 11 12 13 14 15 16 17 18
231
FTUS43 KFSD 300530
TAFFSD
TAF
KFSD 300530Z 3006/0106 31015G22KT P6SM -SN OVC014
      TEMPO 3008/3012 3SM -SN
     FM301900 31015G23KT 6SM -SN OVC010
     FM302100 31015G23KT P6SM VCSH OVC012
     FM010100 30012G18KT P6SM OVC012=

USA.gov is the U.S. government's official web portal to all federal, state and local government web resources and services.